首页
METAR-TAF:

METAR-TAF

机场 :

克里斯蒂亚诺·罗纳尔多机场

丰沙尔, 馬德拉群岛, 葡萄牙

纬度: 32-41-52N, 经度: 016-46-28W, 海拔: 59米

当前天气观测

该预报发布于40分钟前的06:30 UTC
风速6节,风向
温度 17°C
湿度 68%
气压 1024 hPa
能见度10公里或以上
散云层高于1600英尺

METAR: LPMA 170630Z 36006KT 9999 SCT016 17/11 Q1024

时间: 07:10 (07:10 UTC)

预报

该预报发布于2小时和10分钟前的05:00 UTC
预报有效从17日的 06点(UTC)到 18日的 06点(UTC)
风速10节,风向
能见度10公里或以上
散云层高于1600英尺
短暂存在
从 17日的 06点(UTC)到 18日的 06点(UTC)
多云层高于1500英尺
成为
从 17日的 08点(UTC)到 17日的 11点(UTC)
风速10节,风向北转东北
成为
从 17日的 19点(UTC)到 17日的 22点(UTC)
风速10节,风向
几率 30% :
短暂存在
从 17日的 22点(UTC)到 18日的 06点(UTC)
能見度: 6000
多云层高于1300英尺
小雨

TAF: LPMA 170500Z 1706/1806 35010KT 9999 SCT016 TEMPO 1706/1806 BKN015 BECMG 1708/1711 02010KT BECMG 1719/1722 35010KT PROB30 TEMPO 1722/1806 6000 -RA BKN013

超过4000个机场的气象观测和天气预报(METAR&TAF报告)。

可查询的气象台以黄色和红色小点在地图上表示。

将鼠标移到小点上方,可查看气象台名称。

然后点击查看天气观测和预报。

如需切换地图:点击带黑十字的绿色按钮放大地图;点击带横线的绿色按钮缩小地图;或者点击绿色箭头查看邻近地区的地图。


METAR-TAF: